This is the latest recevied weather packets stored in our database for station/object HP1CDW-10. If no packets are shown the sender has not sent any weather packets the latest 10 day(s).
| Time | Temp. | Humidity | Pressure | Rain* | Wind** | Luminosity | Snow |
|---|---|---|---|---|---|---|---|
| 1777674089 | 36.11° C | 47% | 999.6 hPa | - | - | - | - |
| 1777673483 | 36.67° C | 47% | 999.8 hPa | - | - | - | - |
| 1777672878 | 36.67° C | 47% | 999.5 hPa | - | - | - | - |
| 1777672274 | 36.67° C | 47% | 999.3 hPa | - | - | - | - |
| 1777671669 | 36.67° C | 46% | 999.1 hPa | - | - | - | - |
| 1777671064 | 36.67° C | 46% | 999 hPa | - | - | - | - |
| 1777669855 | 36.67° C | 46% | 998.7 hPa | - | - | - | - |
| 1777669250 | 36.67° C | 45% | 998.7 hPa | - | - | - | - |
| 1777668040 | 36.11° C | 47% | 998.8 hPa | - | - | - | - |
| 1777667435 | 37.22° C | 45% | 998.7 hPa | - | - | - | - |
| 1777666831 | 36.67° C | 47% | 998.8 hPa | - | - | - | - |
| 1777666226 | 36.67° C | 45% | 998.8 hPa | - | - | - | - |
| 1777665621 | 35.56° C | 49% | 998.9 hPa | - | - | - | - |
| 1777665016 | 36.67° C | 46% | 998.7 hPa | - | - | - | - |
| 1777664411 | 36.67° C | 44% | 999 hPa | - | - | - | - |
| 1777660174 | 37.22° C | 44% | 999.8 hPa | - | - | - | - |
| 1777659569 | 36.67° C | 44% | 1000.2 hPa | - | - | - | - |
| 1777658360 | 37.22° C | 43% | 1000.7 hPa | - | - | - | - |
| 1777657755 | 36.67° C | 43% | 1000.9 hPa | - | - | - | - |
| 1777657150 | 36.67° C | 43% | 1001.1 hPa | - | - | - | - |
| 1777656546 | 36.67° C | 44% | 1001.4 hPa | - | - | - | - |
| 1777653522 | 36.11° C | 47% | 1002.1 hPa | - | - | - | - |
| 1777652917 | 36.11° C | 47% | 1002.1 hPa | - | - | - | - |
| 1777651707 | 35.56° C | 49% | 1002.3 hPa | - | - | - | - |
| 1777651102 | 35.56° C | 49% | 1002.4 hPa | - | - | - | - |
* Rain since midnight (hover to see other rain measurements)
** Current wind speed in m/s (hover to see current wind gust speed)